Scott, Indiana
Current Conditions -  °F | °C
As of 1:55 PM on Thursday 23 Oct 2014 (Local Time) from KANQ Reporting Station
Clear Clear  
Wind Chill: 13°   Ceiling: Unl
Heat Index: 13°   Visibility: 10mi
Dew Point:   Wind: 5mph
Humidity: 54%   Direction: NA
Pressure: 30.19"   Gusts: NA
Location:  41.6594°N, 85.0055°W
Report Text: KANQ 231755Z AUTO VRB04KT 10SM CLR 13/04 A3019 RMK
Loading
Personal Weather Stations






























Interactive Weather Map
Tropical Storm Tracking
New forecast layout! Learn more

10-Day Weather Forecast

Advertisements
Track Severe Weather on mobile